sensor_id;sensor_type;location;lat;lon;timestamp;temperature;humidity
14670;DHT22;7423;48.722;9.350;2024-01-11T00:01:48;0.80;99.90
14670;DHT22;7423;48.722;9.350;2024-01-11T00:04:16;0.90;99.90
14670;DHT22;7423;48.722;9.350;2024-01-11T00:06:43;0.90;99.90
14670;DHT22;7423;48.722;9.350;2024-01-11T00:09:11;0.90;99.90
14670;DHT22;7423;48.722;9.350;2024-01-11T00:11:38;0.80;99.90
14670;DHT22;7423;48.722;9.350;2024-01-11T00:14:05;0.80;99.90
14670;DHT22;7423;48.722;9.350;2024-01-11T00:16:32;0.80;99.90
14670;DHT22;7423;48.722;9.350;2024-01-11T00:19:00;0.80;99.90
14670;DHT22;7423;48.722;9.350;2024-01-11T00:21:27;0.70;99.90
14670;DHT22;7423;48.722;9.350;2024-01-11T00:23:53;0.70;99.90
14670;DHT22;7423;48.722;9.350;2024-01-11T00:26:20;0.90;99.90
14670;DHT22;7423;48.722;9.350;2024-01-11T00:28:47;0.70;99.90
14670;DHT22;7423;48.722;9.350;2024-01-11T00:31:14;0.70;99.90
14670;DHT22;7423;48.722;9.350;2024-01-11T00:33:41;0.70;99.90
14670;DHT22;7423;48.722;9.350;2024-01-11T00:36:09;0.60;99.90
14670;DHT22;7423;48.722;9.350;2024-01-11T00:41:03;0.50;99.90
14670;DHT22;7423;48.722;9.350;2024-01-11T00:43:30;0.50;99.90
14670;DHT22;7423;48.722;9.350;2024-01-11T00:45:57;0.50;99.90
14670;DHT22;7423;48.722;9.350;2024-01-11T00:48:24;0.50;99.90
14670;DHT22;7423;48.722;9.350;2024-01-11T00:50:51;0.50;99.90
14670;DHT22;7423;48.722;9.350;2024-01-11T00:53:18;0.50;99.90
14670;DHT22;7423;48.722;9.350;2024-01-11T00:55:45;0.50;99.90
14670;DHT22;7423;48.722;9.350;2024-01-11T00:58:12;0.50;99.90
14670;DHT22;7423;48.722;9.350;2024-01-11T01:00:39;0.50;99.90
14670;DHT22;7423;48.722;9.350;2024-01-11T01:03:06;0.50;99.90
14670;DHT22;7423;48.722;9.350;2024-01-11T01:05:33;0.50;99.90
14670;DHT22;7423;48.722;9.350;2024-01-11T01:08:00;0.40;99.90
14670;DHT22;7423;48.722;9.350;2024-01-11T01:10:27;0.40;99.90
14670;DHT22;7423;48.722;9.350;2024-01-11T01:12:54;0.40;99.90
14670;DHT22;7423;48.722;9.350;2024-01-11T01:15:21;0.40;99.90
14670;DHT22;7423;48.722;9.350;2024-01-11T01:17:48;0.30;99.90
14670;DHT22;7423;48.722;9.350;2024-01-11T01:20:15;0.30;99.90
14670;DHT22;7423;48.722;9.350;2024-01-11T01:22:42;0.30;99.90
14670;DHT22;7423;48.722;9.350;2024-01-11T01:25:09;0.30;99.90
14670;DHT22;7423;48.722;9.350;2024-01-11T01:27:36;0.30;99.90
14670;DHT22;7423;48.722;9.350;2024-01-11T01:30:03;0.20;99.90
14670;DHT22;7423;48.722;9.350;2024-01-11T01:32:31;0.20;99.90
14670;DHT22;7423;48.722;9.350;2024-01-11T01:34:58;0.10;99.90
14670;DHT22;7423;48.722;9.350;2024-01-11T01:37:26;0.20;99.90
14670;DHT22;7423;48.722;9.350;2024-01-11T01:39:53;0.20;99.90
14670;DHT22;7423;48.722;9.350;2024-01-11T01:42:20;0.20;99.90
14670;DHT22;7423;48.722;9.350;2024-01-11T01:44:47;0.10;99.90
14670;DHT22;7423;48.722;9.350;2024-01-11T01:47:13;0.10;99.90
14670;DHT22;7423;48.722;9.350;2024-01-11T01:49:42;0.10;99.90
14670;DHT22;7423;48.722;9.350;2024-01-11T01:52:10;0.20;99.90
14670;DHT22;7423;48.722;9.350;2024-01-11T01:54:40;0.20;99.90
14670;DHT22;7423;48.722;9.350;2024-01-11T01:57:09;0.10;99.90
14670;DHT22;7423;48.722;9.350;2024-01-11T01:59:36;0.10;99.90
14670;DHT22;7423;48.722;9.350;2024-01-11T02:02:05;0.10;99.90
14670;DHT22;7423;48.722;9.350;2024-01-11T02:04:33;0.10;99.90
14670;DHT22;7423;48.722;9.350;2024-01-11T02:07:02;0.10;99.90
14670;DHT22;7423;48.722;9.350;2024-01-11T02:09:30;0.10;99.90
14670;DHT22;7423;48.722;9.350;2024-01-11T02:11:57;0.10;99.90
14670;DHT22;7423;48.722;9.350;2024-01-11T02:14:25;0.10;99.90
14670;DHT22;7423;48.722;9.350;2024-01-11T02:16:52;0.20;99.90
14670;DHT22;7423;48.722;9.350;2024-01-11T02:19:20;0.20;99.90
14670;DHT22;7423;48.722;9.350;2024-01-11T02:21:49;0.20;99.90
14670;DHT22;7423;48.722;9.350;2024-01-11T02:24:16;0.20;99.90
14670;DHT22;7423;48.722;9.350;2024-01-11T02:27:04;0.20;99.90
14670;DHT22;7423;48.722;9.350;2024-01-11T02:29:31;0.30;99.90
14670;DHT22;7423;48.722;9.350;2024-01-11T02:32:00;0.30;99.90
14670;DHT22;7423;48.722;9.350;2024-01-11T02:34:29;0.20;99.90
14670;DHT22;7423;48.722;9.350;2024-01-11T02:36:56;0.20;99.90
14670;DHT22;7423;48.722;9.350;2024-01-11T02:39:24;0.20;99.90
14670;DHT22;7423;48.722;9.350;2024-01-11T02:41:53;0.20;99.90
14670;DHT22;7423;48.722;9.350;2024-01-11T02:44:22;0.10;99.90
14670;DHT22;7423;48.722;9.350;2024-01-11T02:46:49;0.00;99.90
14670;DHT22;7423;48.722;9.350;2024-01-11T02:49:15;0.10;99.90
14670;DHT22;7423;48.722;9.350;2024-01-11T02:51:43;0.10;99.90
14670;DHT22;7423;48.722;9.350;2024-01-11T02:54:09;0.10;99.90
14670;DHT22;7423;48.722;9.350;2024-01-11T02:56:36;0.10;99.90
14670;DHT22;7423;48.722;9.350;2024-01-11T02:59:03;0.10;99.90
14670;DHT22;7423;48.722;9.350;2024-01-11T03:01:30;0.10;99.90
14670;DHT22;7423;48.722;9.350;2024-01-11T03:03:57;0.10;99.90
14670;DHT22;7423;48.722;9.350;2024-01-11T03:06:24;0.10;99.90
14670;DHT22;7423;48.722;9.350;2024-01-11T03:08:51;0.00;99.90
14670;DHT22;7423;48.722;9.350;2024-01-11T03:11:18;0.10;99.90
14670;DHT22;7423;48.722;9.350;2024-01-11T03:16:12;0.00;99.90
14670;DHT22;7423;48.722;9.350;2024-01-11T03:18:40;0.00;99.90
14670;DHT22;7423;48.722;9.350;2024-01-11T03:21:07;-0.10;99.90
14670;DHT22;7423;48.722;9.350;2024-01-11T03:23:34;-0.20;99.90
14670;DHT22;7423;48.722;9.350;2024-01-11T03:26:01;-0.20;99.90
14670;DHT22;7423;48.722;9.350;2024-01-11T03:28:28;-0.20;99.90
14670;DHT22;7423;48.722;9.350;2024-01-11T03:30:56;-0.20;99.90
14670;DHT22;7423;48.722;9.350;2024-01-11T03:33:23;-0.10;99.90
14670;DHT22;7423;48.722;9.350;2024-01-11T03:35:50;-0.10;99.90
14670;DHT22;7423;48.722;9.350;2024-01-11T03:38:17;-0.10;99.90
14670;DHT22;7423;48.722;9.350;2024-01-11T03:40:44;-0.20;99.90
14670;DHT22;7423;48.722;9.350;2024-01-11T03:43:11;-0.20;99.90
14670;DHT22;7423;48.722;9.350;2024-01-11T03:45:39;-0.20;99.90
14670;DHT22;7423;48.722;9.350;2024-01-11T03:48:06;-0.20;99.90
14670;DHT22;7423;48.722;9.350;2024-01-11T03:50:33;-0.20;99.90
14670;DHT22;7423;48.722;9.350;2024-01-11T03:53:00;-0.10;99.90
14670;DHT22;7423;48.722;9.350;2024-01-11T03:55:27;-0.10;99.90
14670;DHT22;7423;48.722;9.350;2024-01-11T03:57:53;-0.10;99.90
14670;DHT22;7423;48.722;9.350;2024-01-11T04:02:47;-0.20;99.90
14670;DHT22;7423;48.722;9.350;2024-01-11T04:05:14;-0.20;99.90
14670;DHT22;7423;48.722;9.350;2024-01-11T04:07:42;-0.20;99.90
14670;DHT22;7423;48.722;9.350;2024-01-11T04:10:09;-0.20;99.90
14670;DHT22;7423;48.722;9.350;2024-01-11T04:12:36;-0.30;99.90
14670;DHT22;7423;48.722;9.350;2024-01-11T04:15:04;-0.30;99.90
14670;DHT22;7423;48.722;9.350;2024-01-11T04:17:31;-0.40;99.90
14670;DHT22;7423;48.722;9.350;2024-01-11T04:22:28;-0.30;99.90
14670;DHT22;7423;48.722;9.350;2024-01-11T04:24:54;-0.40;99.90
14670;DHT22;7423;48.722;9.350;2024-01-11T04:27:22;1.50;99.90
14670;DHT22;7423;48.722;9.350;2024-01-11T04:29:49;-0.50;99.90
14670;DHT22;7423;48.722;9.350;2024-01-11T04:32:16;-0.40;99.90
14670;DHT22;7423;48.722;9.350;2024-01-11T04:34:43;-0.30;99.90
14670;DHT22;7423;48.722;9.350;2024-01-11T04:37:10;-0.30;99.90
14670;DHT22;7423;48.722;9.350;2024-01-11T04:39:37;-0.30;99.90
14670;DHT22;7423;48.722;9.350;2024-01-11T04:42:04;-0.40;99.90
14670;DHT22;7423;48.722;9.350;2024-01-11T04:46:58;-0.40;99.90
14670;DHT22;7423;48.722;9.350;2024-01-11T04:49:25;-0.40;99.90
14670;DHT22;7423;48.722;9.350;2024-01-11T04:51:52;-0.40;99.90
14670;DHT22;7423;48.722;9.350;2024-01-11T04:54:19;-0.40;99.90
14670;DHT22;7423;48.722;9.350;2024-01-11T04:56:46;-0.50;99.90
14670;DHT22;7423;48.722;9.350;2024-01-11T04:59:13;-0.40;99.90
14670;DHT22;7423;48.722;9.350;2024-01-11T05:01:39;-0.50;99.90
14670;DHT22;7423;48.722;9.350;2024-01-11T05:04:08;-0.50;99.90
14670;DHT22;7423;48.722;9.350;2024-01-11T05:06:35;-0.50;99.90
14670;DHT22;7423;48.722;9.350;2024-01-11T05:09:02;-0.50;99.90
14670;DHT22;7423;48.722;9.350;2024-01-11T05:11:31;-0.60;99.90
14670;DHT22;7423;48.722;9.350;2024-01-11T05:13:58;-0.60;99.90
14670;DHT22;7423;48.722;9.350;2024-01-11T05:16:29;-0.60;99.90
14670;DHT22;7423;48.722;9.350;2024-01-11T05:18:57;-0.60;99.90
14670;DHT22;7423;48.722;9.350;2024-01-11T05:21:24;-0.60;99.90
14670;DHT22;7423;48.722;9.350;2024-01-11T05:23:53;-0.60;99.90
14670;DHT22;7423;48.722;9.350;2024-01-11T05:26:20;-0.60;99.90
14670;DHT22;7423;48.722;9.350;2024-01-11T05:28:47;-0.60;99.90
14670;DHT22;7423;48.722;9.350;2024-01-11T05:31:15;-0.70;99.90
14670;DHT22;7423;48.722;9.350;2024-01-11T05:33:43;-0.80;99.90
14670;DHT22;7423;48.722;9.350;2024-01-11T05:36:10;-0.70;99.90
14670;DHT22;7423;48.722;9.350;2024-01-11T05:38:39;-0.70;99.90
14670;DHT22;7423;48.722;9.350;2024-01-11T05:41:07;-0.70;99.90
14670;DHT22;7423;48.722;9.350;2024-01-11T05:43:35;-0.60;99.90
14670;DHT22;7423;48.722;9.350;2024-01-11T05:46:02;-0.60;99.90
14670;DHT22;7423;48.722;9.350;2024-01-11T05:48:29;-0.60;99.90
14670;DHT22;7423;48.722;9.350;2024-01-11T05:50:56;-0.60;99.90
14670;DHT22;7423;48.722;9.350;2024-01-11T05:53:23;-0.60;99.90
14670;DHT22;7423;48.722;9.350;2024-01-11T05:55:51;-0.60;99.90
14670;DHT22;7423;48.722;9.350;2024-01-11T05:58:21;-0.60;99.90
14670;DHT22;7423;48.722;9.350;2024-01-11T06:00:47;-0.50;99.90
14670;DHT22;7423;48.722;9.350;2024-01-11T06:03:14;-0.60;99.90
14670;DHT22;7423;48.722;9.350;2024-01-11T06:05:41;-0.50;99.90
14670;DHT22;7423;48.722;9.350;2024-01-11T06:08:09;-0.40;99.90
14670;DHT22;7423;48.722;9.350;2024-01-11T06:10:36;-0.50;99.90
14670;DHT22;7423;48.722;9.350;2024-01-11T06:15:32;-0.60;99.90
14670;DHT22;7423;48.722;9.350;2024-01-11T06:20:27;-0.60;99.90
14670;DHT22;7423;48.722;9.350;2024-01-11T06:22:54;-0.70;99.90
14670;DHT22;7423;48.722;9.350;2024-01-11T06:25:21;-0.70;99.90
14670;DHT22;7423;48.722;9.350;2024-01-11T06:27:48;-0.60;99.90
14670;DHT22;7423;48.722;9.350;2024-01-11T06:30:15;-0.60;99.90
14670;DHT22;7423;48.722;9.350;2024-01-11T06:32:42;-0.60;99.90
14670;DHT22;7423;48.722;9.350;2024-01-11T06:35:09;-0.50;99.90
14670;DHT22;7423;48.722;9.350;2024-01-11T06:37:36;-0.50;99.90
14670;DHT22;7423;48.722;9.350;2024-01-11T06:40:04;-0.50;99.90
14670;DHT22;7423;48.722;9.350;2024-01-11T06:42:31;-0.50;99.90
14670;DHT22;7423;48.722;9.350;2024-01-11T06:44:58;-0.60;99.90
14670;DHT22;7423;48.722;9.350;2024-01-11T06:47:25;-0.60;99.90
14670;DHT22;7423;48.722;9.350;2024-01-11T06:49:53;-0.60;99.90
14670;DHT22;7423;48.722;9.350;2024-01-11T06:52:20;-0.60;99.90
14670;DHT22;7423;48.722;9.350;2024-01-11T06:57:14;-0.70;99.90
14670;DHT22;7423;48.722;9.350;2024-01-11T07:02:08;-0.70;99.90
14670;DHT22;7423;48.722;9.350;2024-01-11T07:04:35;-0.70;99.90
14670;DHT22;7423;48.722;9.350;2024-01-11T07:07:02;-0.70;99.90
14670;DHT22;7423;48.722;9.350;2024-01-11T07:09:31;-0.70;99.90
14670;DHT22;7423;48.722;9.350;2024-01-11T07:11:58;-0.70;99.90
14670;DHT22;7423;48.722;9.350;2024-01-11T07:14:24;-0.70;99.90
14670;DHT22;7423;48.722;9.350;2024-01-11T07:16:52;-0.70;99.90
14670;DHT22;7423;48.722;9.350;2024-01-11T07:19:19;-0.80;99.90
14670;DHT22;7423;48.722;9.350;2024-01-11T07:21:46;-0.80;99.90
14670;DHT22;7423;48.722;9.350;2024-01-11T07:24:13;-0.80;99.90
14670;DHT22;7423;48.722;9.350;2024-01-11T07:26:40;-0.70;99.90
14670;DHT22;7423;48.722;9.350;2024-01-11T07:29:08;-0.80;99.90
14670;DHT22;7423;48.722;9.350;2024-01-11T07:31:35;-0.80;99.90
14670;DHT22;7423;48.722;9.350;2024-01-11T07:34:02;-0.80;99.90
14670;DHT22;7423;48.722;9.350;2024-01-11T07:36:29;-0.80;99.90
14670;DHT22;7423;48.722;9.350;2024-01-11T07:38:56;-0.70;99.90
14670;DHT22;7423;48.722;9.350;2024-01-11T07:41:23;-0.80;99.90
14670;DHT22;7423;48.722;9.350;2024-01-11T07:43:50;-0.70;99.90
14670;DHT22;7423;48.722;9.350;2024-01-11T07:46:20;-0.70;99.90
14670;DHT22;7423;48.722;9.350;2024-01-11T07:49:02;-0.80;99.90
14670;DHT22;7423;48.722;9.350;2024-01-11T07:51:30;-0.80;99.90
14670;DHT22;7423;48.722;9.350;2024-01-11T07:53:57;-0.70;99.90
14670;DHT22;7423;48.722;9.350;2024-01-11T07:56:25;-0.70;99.90
14670;DHT22;7423;48.722;9.350;2024-01-11T07:58:52;-0.70;99.90
14670;DHT22;7423;48.722;9.350;2024-01-11T08:01:19;-0.60;99.90
14670;DHT22;7423;48.722;9.350;2024-01-11T08:03:46;-0.70;99.90
14670;DHT22;7423;48.722;9.350;2024-01-11T08:06:14;-0.60;99.90
14670;DHT22;7423;48.722;9.350;2024-01-11T08:08:41;-0.60;99.90
14670;DHT22;7423;48.722;9.350;2024-01-11T08:11:10;-0.70;99.90
14670;DHT22;7423;48.722;9.350;2024-01-11T08:13:39;-0.60;99.90
14670;DHT22;7423;48.722;9.350;2024-01-11T08:16:06;-0.70;99.90
14670;DHT22;7423;48.722;9.350;2024-01-11T08:18:36;-0.70;99.90
14670;DHT22;7423;48.722;9.350;2024-01-11T08:21:03;-0.60;99.90
14670;DHT22;7423;48.722;9.350;2024-01-11T08:23:33;-0.50;99.90
14670;DHT22;7423;48.722;9.350;2024-01-11T08:26:00;-0.50;99.90
14670;DHT22;7423;48.722;9.350;2024-01-11T08:28:27;-0.40;99.90
14670;DHT22;7423;48.722;9.350;2024-01-11T08:30:54;-0.40;99.90
14670;DHT22;7423;48.722;9.350;2024-01-11T08:33:22;-0.40;99.90
14670;DHT22;7423;48.722;9.350;2024-01-11T08:35:49;-0.40;99.90
14670;DHT22;7423;48.722;9.350;2024-01-11T08:38:16;-0.30;99.90
14670;DHT22;7423;48.722;9.350;2024-01-11T08:40:43;-0.50;99.90
14670;DHT22;7423;48.722;9.350;2024-01-11T08:43:11;-0.30;99.90
14670;DHT22;7423;48.722;9.350;2024-01-11T08:45:37;-0.40;99.90
14670;DHT22;7423;48.722;9.350;2024-01-11T08:48:05;-0.20;99.90
14670;DHT22;7423;48.722;9.350;2024-01-11T08:50:32;-0.20;99.90
14670;DHT22;7423;48.722;9.350;2024-01-11T08:52:59;-0.20;99.90
14670;DHT22;7423;48.722;9.350;2024-01-11T08:55:26;-0.10;99.90
14670;DHT22;7423;48.722;9.350;2024-01-11T08:57:53;-0.10;99.90
14670;DHT22;7423;48.722;9.350;2024-01-11T09:00:20;0.00;99.90
14670;DHT22;7423;48.722;9.350;2024-01-11T09:02:47;0.10;99.90
14670;DHT22;7423;48.722;9.350;2024-01-11T09:05:15;0.10;99.90
14670;DHT22;7423;48.722;9.350;2024-01-11T09:07:43;0.10;99.90
14670;DHT22;7423;48.722;9.350;2024-01-11T09:10:10;0.20;99.90
14670;DHT22;7423;48.722;9.350;2024-01-11T09:12:38;0.20;99.90
14670;DHT22;7423;48.722;9.350;2024-01-11T09:15:05;0.30;99.90
14670;DHT22;7423;48.722;9.350;2024-01-11T09:17:33;0.20;99.90
14670;DHT22;7423;48.722;9.350;2024-01-11T09:20:00;0.30;99.90
14670;DHT22;7423;48.722;9.350;2024-01-11T09:22:27;0.30;99.90
14670;DHT22;7423;48.722;9.350;2024-01-11T09:24:54;0.30;99.90
14670;DHT22;7423;48.722;9.350;2024-01-11T09:27:21;0.30;99.90
14670;DHT22;7423;48.722;9.350;2024-01-11T09:29:49;0.40;99.90
14670;DHT22;7423;48.722;9.350;2024-01-11T09:32:22;0.40;99.90
14670;DHT22;7423;48.722;9.350;2024-01-11T09:34:49;0.40;99.90
14670;DHT22;7423;48.722;9.350;2024-01-11T09:37:17;0.50;99.90
14670;DHT22;7423;48.722;9.350;2024-01-11T09:39:44;0.50;99.90
14670;DHT22;7423;48.722;9.350;2024-01-11T09:42:11;0.50;99.90
14670;DHT22;7423;48.722;9.350;2024-01-11T09:44:38;0.60;99.90
14670;DHT22;7423;48.722;9.350;2024-01-11T09:47:08;0.60;99.90
14670;DHT22;7423;48.722;9.350;2024-01-11T09:49:43;0.70;99.90
14670;DHT22;7423;48.722;9.350;2024-01-11T09:52:11;0.70;99.90
14670;DHT22;7423;48.722;9.350;2024-01-11T09:54:40;0.70;99.90
14670;DHT22;7423;48.722;9.350;2024-01-11T09:57:09;0.80;99.90
14670;DHT22;7423;48.722;9.350;2024-01-11T09:59:36;0.90;99.90
14670;DHT22;7423;48.722;9.350;2024-01-11T10:02:04;0.90;99.90
14670;DHT22;7423;48.722;9.350;2024-01-11T10:04:35;0.90;99.90
14670;DHT22;7423;48.722;9.350;2024-01-11T10:07:04;1.00;99.90
14670;DHT22;7423;48.722;9.350;2024-01-11T10:09:31;1.10;99.90
14670;DHT22;7423;48.722;9.350;2024-01-11T10:11:58;1.10;99.90
14670;DHT22;7423;48.722;9.350;2024-01-11T10:14:26;1.20;99.90
14670;DHT22;7423;48.722;9.350;2024-01-11T10:16:54;1.20;99.90
14670;DHT22;7423;48.722;9.350;2024-01-11T10:19:21;1.40;99.90
14670;DHT22;7423;48.722;9.350;2024-01-11T10:21:49;1.30;99.90
14670;DHT22;7423;48.722;9.350;2024-01-11T10:24:19;1.40;99.90
14670;DHT22;7423;48.722;9.350;2024-01-11T10:26:56;1.60;99.90
14670;DHT22;7423;48.722;9.350;2024-01-11T10:29:30;1.60;99.90
14670;DHT22;7423;48.722;9.350;2024-01-11T10:31:57;1.70;99.90
14670;DHT22;7423;48.722;9.350;2024-01-11T10:34:25;1.70;99.90
14670;DHT22;7423;48.722;9.350;2024-01-11T10:36:52;1.70;99.90
14670;DHT22;7423;48.722;9.350;2024-01-11T10:39:26;1.70;99.90
14670;DHT22;7423;48.722;9.350;2024-01-11T10:42:04;1.80;99.90
14670;DHT22;7423;48.722;9.350;2024-01-11T10:44:34;1.90;99.90
14670;DHT22;7423;48.722;9.350;2024-01-11T10:47:03;2.00;99.90
14670;DHT22;7423;48.722;9.350;2024-01-11T10:49:37;2.10;99.90
14670;DHT22;7423;48.722;9.350;2024-01-11T10:52:07;2.00;99.90
14670;DHT22;7423;48.722;9.350;2024-01-11T10:54:35;1.50;99.90
14670;DHT22;7423;48.722;9.350;2024-01-11T10:57:03;2.00;99.90
14670;DHT22;7423;48.722;9.350;2024-01-11T10:59:32;2.00;99.90
14670;DHT22;7423;48.722;9.350;2024-01-11T11:02:05;2.10;99.90
14670;DHT22;7423;48.722;9.350;2024-01-11T11:04:40;2.10;99.90
14670;DHT22;7423;48.722;9.350;2024-01-11T11:07:09;2.20;99.90
14670;DHT22;7423;48.722;9.350;2024-01-11T11:09:38;2.30;99.90
14670;DHT22;7423;48.722;9.350;2024-01-11T11:12:10;2.30;99.90
14670;DHT22;7423;48.722;9.350;2024-01-11T11:14:38;2.40;99.90
14670;DHT22;7423;48.722;9.350;2024-01-11T11:17:05;2.40;99.90
14670;DHT22;7423;48.722;9.350;2024-01-11T11:19:32;2.50;99.90
14670;DHT22;7423;48.722;9.350;2024-01-11T11:22:03;2.40;99.90
14670;DHT22;7423;48.722;9.350;2024-01-11T11:24:34;2.60;99.90
14670;DHT22;7423;48.722;9.350;2024-01-11T11:27:01;2.70;99.90
14670;DHT22;7423;48.722;9.350;2024-01-11T11:29:30;2.70;99.90
14670;DHT22;7423;48.722;9.350;2024-01-11T11:31:57;2.80;99.90
14670;DHT22;7423;48.722;9.350;2024-01-11T11:34:44;2.90;99.90
14670;DHT22;7423;48.722;9.350;2024-01-11T11:37:12;2.90;99.90
14670;DHT22;7423;48.722;9.350;2024-01-11T11:39:41;2.90;99.90
14670;DHT22;7423;48.722;9.350;2024-01-11T11:42:09;2.90;99.90
14670;DHT22;7423;48.722;9.350;2024-01-11T11:44:50;2.90;99.90
14670;DHT22;7423;48.722;9.350;2024-01-11T11:47:22;3.00;99.90
14670;DHT22;7423;48.722;9.350;2024-01-11T11:50:08;2.90;99.90
14670;DHT22;7423;48.722;9.350;2024-01-11T11:52:40;3.10;99.90
14670;DHT22;7423;48.722;9.350;2024-01-11T11:55:10;3.10;99.90
14670;DHT22;7423;48.722;9.350;2024-01-11T11:57:38;3.20;99.90
14670;DHT22;7423;48.722;9.350;2024-01-11T12:00:05;3.20;99.90
14670;DHT22;7423;48.722;9.350;2024-01-11T12:02:33;3.20;99.90
14670;DHT22;7423;48.722;9.350;2024-01-11T12:05:03;3.30;99.90
14670;DHT22;7423;48.722;9.350;2024-01-11T12:07:33;3.40;99.90
14670;DHT22;7423;48.722;9.350;2024-01-11T12:10:00;3.50;99.90
14670;DHT22;7423;48.722;9.350;2024-01-11T12:12:28;3.50;99.90
14670;DHT22;7423;48.722;9.350;2024-01-11T12:14:56;3.60;99.90
14670;DHT22;7423;48.722;9.350;2024-01-11T12:17:25;3.60;99.90
14670;DHT22;7423;48.722;9.350;2024-01-11T12:19:53;3.70;99.90
14670;DHT22;7423;48.722;9.350;2024-01-11T12:22:24;3.70;99.90
14670;DHT22;7423;48.722;9.350;2024-01-11T12:24:50;3.70;99.90
14670;DHT22;7423;48.722;9.350;2024-01-11T12:27:17;3.80;99.90
14670;DHT22;7423;48.722;9.350;2024-01-11T12:29:45;3.80;99.90
14670;DHT22;7423;48.722;9.350;2024-01-11T12:32:24;3.90;99.90
14670;DHT22;7423;48.722;9.350;2024-01-11T12:34:51;3.90;99.90
14670;DHT22;7423;48.722;9.350;2024-01-11T12:37:18;3.90;99.90
14670;DHT22;7423;48.722;9.350;2024-01-11T12:39:45;3.90;99.90
14670;DHT22;7423;48.722;9.350;2024-01-11T12:42:13;3.90;99.90
14670;DHT22;7423;48.722;9.350;2024-01-11T12:44:39;3.90;99.90
14670;DHT22;7423;48.722;9.350;2024-01-11T12:47:08;3.90;99.90
14670;DHT22;7423;48.722;9.350;2024-01-11T12:49:35;3.90;99.90
14670;DHT22;7423;48.722;9.350;2024-01-11T12:52:02;3.90;99.90
14670;DHT22;7423;48.722;9.350;2024-01-11T12:54:32;4.00;99.90
14670;DHT22;7423;48.722;9.350;2024-01-11T12:57:00;4.00;99.90
14670;DHT22;7423;48.722;9.350;2024-01-11T12:59:29;4.00;99.90
14670;DHT22;7423;48.722;9.350;2024-01-11T13:01:56;4.10;99.90
14670;DHT22;7423;48.722;9.350;2024-01-11T13:04:25;4.10;99.90
14670;DHT22;7423;48.722;9.350;2024-01-11T13:06:52;4.20;99.90
14670;DHT22;7423;48.722;9.350;2024-01-11T13:09:20;4.20;99.90
14670;DHT22;7423;48.722;9.350;2024-01-11T13:11:46;4.30;99.90
14670;DHT22;7423;48.722;9.350;2024-01-11T13:14:14;4.20;99.90
14670;DHT22;7423;48.722;9.350;2024-01-11T13:16:45;4.30;99.90
14670;DHT22;7423;48.722;9.350;2024-01-11T13:19:13;4.30;99.90
14670;DHT22;7423;48.722;9.350;2024-01-11T13:21:52;4.40;99.90
14670;DHT22;7423;48.722;9.350;2024-01-11T13:24:19;4.40;99.90
14670;DHT22;7423;48.722;9.350;2024-01-11T13:26:46;4.40;99.90
14670;DHT22;7423;48.722;9.350;2024-01-11T13:29:13;4.40;99.90
14670;DHT22;7423;48.722;9.350;2024-01-11T13:31:40;4.50;99.90
14670;DHT22;7423;48.722;9.350;2024-01-11T13:34:07;4.50;99.90
14670;DHT22;7423;48.722;9.350;2024-01-11T13:36:34;4.60;99.90
14670;DHT22;7423;48.722;9.350;2024-01-11T13:39:01;4.50;99.90
14670;DHT22;7423;48.722;9.350;2024-01-11T13:41:28;4.30;99.90
14670;DHT22;7423;48.722;9.350;2024-01-11T13:43:54;4.20;99.90
14670;DHT22;7423;48.722;9.350;2024-01-11T13:46:21;4.30;99.90
14670;DHT22;7423;48.722;9.350;2024-01-11T13:48:48;4.20;99.90
14670;DHT22;7423;48.722;9.350;2024-01-11T13:51:15;4.10;99.90
14670;DHT22;7423;48.722;9.350;2024-01-11T13:53:42;3.90;99.90
14670;DHT22;7423;48.722;9.350;2024-01-11T13:56:09;3.90;99.90
14670;DHT22;7423;48.722;9.350;2024-01-11T13:58:37;4.00;99.90
14670;DHT22;7423;48.722;9.350;2024-01-11T14:01:04;4.20;99.90
14670;DHT22;7423;48.722;9.350;2024-01-11T14:03:31;4.40;99.90
14670;DHT22;7423;48.722;9.350;2024-01-11T14:05:58;4.50;99.90
14670;DHT22;7423;48.722;9.350;2024-01-11T14:08:26;4.40;99.90
14670;DHT22;7423;48.722;9.350;2024-01-11T14:10:54;4.40;99.90
14670;DHT22;7423;48.722;9.350;2024-01-11T14:13:21;4.40;99.90
14670;DHT22;7423;48.722;9.350;2024-01-11T14:15:48;4.40;99.90
14670;DHT22;7423;48.722;9.350;2024-01-11T14:18:17;4.30;99.90
14670;DHT22;7423;48.722;9.350;2024-01-11T14:20:45;4.30;99.90
14670;DHT22;7423;48.722;9.350;2024-01-11T14:23:12;4.30;99.90
14670;DHT22;7423;48.722;9.350;2024-01-11T14:25:39;4.20;99.90
14670;DHT22;7423;48.722;9.350;2024-01-11T14:28:06;4.30;99.90
14670;DHT22;7423;48.722;9.350;2024-01-11T14:30:34;4.30;99.90
14670;DHT22;7423;48.722;9.350;2024-01-11T14:33:01;4.40;99.90
14670;DHT22;7423;48.722;9.350;2024-01-11T14:35:28;4.30;99.90
14670;DHT22;7423;48.722;9.350;2024-01-11T14:37:55;4.40;99.90
14670;DHT22;7423;48.722;9.350;2024-01-11T14:40:22;4.40;99.90
14670;DHT22;7423;48.722;9.350;2024-01-11T14:42:53;4.30;99.90
14670;DHT22;7423;48.722;9.350;2024-01-11T14:45:20;4.20;99.90
14670;DHT22;7423;48.722;9.350;2024-01-11T14:47:47;4.10;99.90
14670;DHT22;7423;48.722;9.350;2024-01-11T14:50:14;3.90;99.90
14670;DHT22;7423;48.722;9.350;2024-01-11T14:52:42;3.90;99.90
14670;DHT22;7423;48.722;9.350;2024-01-11T14:55:10;4.10;99.90
14670;DHT22;7423;48.722;9.350;2024-01-11T14:57:39;4.20;99.90
14670;DHT22;7423;48.722;9.350;2024-01-11T15:00:07;4.30;99.90
14670;DHT22;7423;48.722;9.350;2024-01-11T15:02:35;4.10;99.90
14670;DHT22;7423;48.722;9.350;2024-01-11T15:05:02;4.20;99.90
14670;DHT22;7423;48.722;9.350;2024-01-11T15:07:30;4.00;99.90
14670;DHT22;7423;48.722;9.350;2024-01-11T15:09:57;4.20;99.90
14670;DHT22;7423;48.722;9.350;2024-01-11T15:12:24;4.20;99.90
14670;DHT22;7423;48.722;9.350;2024-01-11T15:14:51;4.30;99.90
14670;DHT22;7423;48.722;9.350;2024-01-11T15:17:18;4.40;99.90
14670;DHT22;7423;48.722;9.350;2024-01-11T15:19:46;4.30;99.90
14670;DHT22;7423;48.722;9.350;2024-01-11T15:22:14;4.40;99.90
14670;DHT22;7423;48.722;9.350;2024-01-11T15:24:42;4.40;99.90
14670;DHT22;7423;48.722;9.350;2024-01-11T15:27:09;4.40;99.90
14670;DHT22;7423;48.722;9.350;2024-01-11T15:29:36;4.30;99.90
14670;DHT22;7423;48.722;9.350;2024-01-11T15:32:04;4.20;99.90
14670;DHT22;7423;48.722;9.350;2024-01-11T15:34:32;4.20;99.90
14670;DHT22;7423;48.722;9.350;2024-01-11T15:36:59;4.30;99.90
14670;DHT22;7423;48.722;9.350;2024-01-11T15:39:26;4.40;99.90
14670;DHT22;7423;48.722;9.350;2024-01-11T15:41:56;4.60;99.90
14670;DHT22;7423;48.722;9.350;2024-01-11T15:44:26;4.60;99.90
14670;DHT22;7423;48.722;9.350;2024-01-11T15:46:55;4.70;99.90
14670;DHT22;7423;48.722;9.350;2024-01-11T15:49:23;4.60;99.90
14670;DHT22;7423;48.722;9.350;2024-01-11T15:51:51;4.50;99.90
14670;DHT22;7423;48.722;9.350;2024-01-11T15:54:17;4.50;99.90
14670;DHT22;7423;48.722;9.350;2024-01-11T15:56:47;4.50;99.90
14670;DHT22;7423;48.722;9.350;2024-01-11T15:59:14;4.60;99.90
14670;DHT22;7423;48.722;9.350;2024-01-11T16:01:41;4.60;99.90
14670;DHT22;7423;48.722;9.350;2024-01-11T16:04:25;4.60;99.90
14670;DHT22;7423;48.722;9.350;2024-01-11T16:06:53;4.50;99.90
14670;DHT22;7423;48.722;9.350;2024-01-11T16:09:20;4.40;99.90
14670;DHT22;7423;48.722;9.350;2024-01-11T16:11:47;4.40;99.90
14670;DHT22;7423;48.722;9.350;2024-01-11T16:14:15;4.30;99.90
14670;DHT22;7423;48.722;9.350;2024-01-11T16:16:42;4.30;99.90
14670;DHT22;7423;48.722;9.350;2024-01-11T16:19:09;4.30;99.90
14670;DHT22;7423;48.722;9.350;2024-01-11T16:21:36;4.30;99.90
14670;DHT22;7423;48.722;9.350;2024-01-11T16:24:03;4.30;99.90